createdAt,value
2022-08-18T00:00:20.352Z,13.49
2022-08-18T00:00:55.024Z,13.23
2022-08-18T00:01:42.271Z,13.36
2022-08-18T00:02:30.156Z,13.26
2022-08-18T00:03:53.397Z,13.14
2022-08-18T00:04:25.195Z,13.02
2022-08-18T00:05:19.970Z,13.25
2022-08-18T00:05:54.133Z,12.88
2022-08-18T00:06:40.931Z,12.85
2022-08-18T00:07:23.995Z,13.25
2022-08-18T00:08:12.924Z,13.04
2022-08-18T00:08:46.987Z,12.81
2022-08-18T00:09:33.936Z,12.60
2022-08-18T00:10:17.933Z,12.56
2022-08-18T00:10:58.961Z,12.75
2022-08-18T00:11:43.002Z,12.82
2022-08-18T00:12:44.964Z,12.80
2022-08-18T00:13:24.993Z,12.26
2022-08-18T00:14:05.918Z,12.45
2022-08-18T00:14:46.040Z,12.88
2022-08-18T00:15:26.916Z,12.56
2022-08-18T00:16:13.958Z,12.43
2022-08-18T00:17:07.931Z,12.82
2022-08-18T00:18:01.951Z,12.89
2022-08-18T00:18:55.920Z,12.81
2022-08-18T00:19:49.924Z,12.52
2022-08-18T00:20:43.915Z,12.40
2022-08-18T00:21:30.921Z,12.50
2022-08-18T00:22:05.025Z,12.44
2022-08-18T00:22:53.108Z,12.45
2022-08-18T00:23:28.780Z,12.52
2022-08-18T00:24:15.920Z,12.29
2022-08-18T00:24:53.006Z,12.61
2022-08-18T00:25:40.915Z,12.60
2022-08-18T00:26:14.975Z,12.52
2022-08-18T00:26:55.942Z,12.44
2022-08-18T00:27:38.298Z,12.34
2022-08-18T00:28:20.902Z,12.45
2022-08-18T00:29:04.064Z,12.37
2022-08-18T00:29:43.925Z,12.29
2022-08-18T00:30:27.995Z,12.41
2022-08-18T00:31:08.923Z,12.24
2022-08-18T00:31:48.993Z,12.24
2022-08-18T00:32:40.943Z,12.14
2022-08-18T00:33:21.029Z,12.60
2022-08-18T00:34:00.911Z,12.95
2022-08-18T00:34:41.025Z,13.53
2022-08-18T00:35:34.931Z,13.11
2022-08-18T00:36:15.042Z,13.07
2022-08-18T00:36:56.909Z,12.99
2022-08-18T00:37:38.106Z,13.14
2022-08-18T00:38:24.742Z,13.27
2022-08-18T00:39:06.187Z,13.10
2022-08-18T00:39:46.573Z,13.10
2022-08-18T00:40:37.682Z,13.70
2022-08-18T00:41:18.895Z,13.61
2022-08-18T00:41:58.975Z,13.49
2022-08-18T00:42:39.916Z,13.98
2022-08-18T00:43:41.944Z,14.26
2022-08-18T00:44:35.892Z,14.01
2022-08-18T00:45:36.893Z,13.74
2022-08-18T00:46:36.889Z,13.54
2022-08-18T00:47:41.458Z,13.96
2022-08-18T00:48:36.910Z,13.69
2022-08-18T00:49:17.931Z,13.52
2022-08-18T00:50:00.177Z,14.31
2022-08-18T00:50:52.908Z,14.49
2022-08-18T00:51:38.031Z,13.99
2022-08-18T00:52:20.881Z,14.30
2022-08-18T00:53:07.969Z,14.29
2022-08-18T00:53:59.886Z,13.84
2022-08-18T00:54:40.930Z,14.29
2022-08-18T00:55:15.059Z,14.94
2022-08-18T00:56:07.897Z,14.85
2022-08-18T00:56:47.995Z,14.64
2022-08-18T00:57:35.908Z,14.81
2022-08-18T00:58:17.036Z,14.55
2022-08-18T00:59:18.893Z,14.19
2022-08-18T01:00:09.936Z,14.65
2022-08-18T01:01:04.932Z,15.00
2022-08-18T01:01:59.908Z,14.96
2022-08-18T01:02:59.903Z,15.32
2022-08-18T01:03:59.892Z,15.13
2022-08-18T01:05:05.882Z,14.52
2022-08-18T01:05:52.985Z,14.60
2022-08-18T01:07:00.573Z,14.64
2022-08-18T01:07:53.117Z,14.30
2022-08-18T01:08:33.958Z,14.36
2022-08-18T01:09:15.897Z,14.71
2022-08-18T01:09:59.492Z,14.64
2022-08-18T01:10:41.926Z,14.98
2022-08-18T01:11:21.947Z,14.75
2022-08-18T01:11:56.544Z,15.06
2022-08-18T01:12:46.670Z,15.44
2022-08-18T01:13:20.942Z,15.65
2022-08-18T01:14:07.892Z,15.60
2022-08-18T01:14:41.985Z,15.71
2022-08-18T01:15:31.894Z,15.65
2022-08-18T01:16:32.911Z,15.54
2022-08-18T01:17:45.864Z,15.63
2022-08-18T01:18:57.879Z,15.44
2022-08-18T01:20:09.865Z,15.96
2022-08-18T01:21:43.919Z,15.86
2022-08-18T01:22:59.882Z,15.82
2022-08-18T01:23:54.881Z,15.64
2022-08-18T01:25:08.861Z,15.44
2022-08-18T01:26:10.879Z,15.29
2022-08-18T01:26:57.886Z,15.19
2022-08-18T01:27:32.325Z,15.48
2022-08-18T01:28:18.869Z,16.24
2022-08-18T01:28:54.135Z,15.95
2022-08-18T01:29:43.624Z,15.82
2022-08-18T01:30:25.375Z,16.33
2022-08-18T01:31:13.864Z,16.30
2022-08-18T01:32:04.882Z,16.16
2022-08-18T01:32:58.884Z,15.46
2022-08-18T01:33:57.888Z,15.85
2022-08-18T01:34:53.894Z,15.55
2022-08-18T01:35:47.874Z,15.56
2022-08-18T01:36:43.867Z,15.56
2022-08-18T01:37:29.879Z,15.76
2022-08-18T01:38:13.285Z,15.71
2022-08-18T01:38:58.855Z,15.84
2022-08-18T01:41:17.241Z,16.00
2022-08-18T01:41:22.677Z,15.68
2022-08-18T01:41:39.974Z,15.64
2022-08-18T01:42:23.878Z,15.88
2022-08-18T01:43:03.894Z,15.30
2022-08-18T01:43:38.095Z,15.84
2022-08-18T01:44:24.896Z,15.91
2022-08-18T01:44:58.921Z,15.43
2022-08-18T01:45:47.873Z,15.38
2022-08-18T01:46:25.985Z,15.99
2022-08-18T01:47:12.881Z,16.17
2022-08-18T01:47:47.504Z,16.73
2022-08-18T01:48:28.891Z,16.42
2022-08-18T01:49:09.937Z,16.40
2022-08-18T01:49:49.849Z,16.24
2022-08-18T01:50:30.319Z,16.58
2022-08-18T01:51:12.850Z,16.26
2022-08-18T01:51:55.531Z,16.34
2022-08-18T01:52:35.850Z,16.55
2022-08-18T01:53:18.289Z,16.21
2022-08-18T01:53:57.877Z,16.35
2022-08-18T01:54:39.149Z,15.96
2022-08-18T01:55:21.855Z,15.84
2022-08-18T01:56:05.342Z,15.81
2022-08-18T01:56:45.848Z,16.76
2022-08-18T01:57:26.999Z,17.41
2022-08-18T01:58:07.848Z,16.99
2022-08-18T01:58:47.945Z,16.71
2022-08-18T01:59:28.850Z,17.52
2022-08-18T02:00:09.104Z,17.49
2022-08-18T02:00:53.845Z,17.14
2022-08-18T02:01:36.740Z,16.86
2022-08-18T02:02:23.878Z,16.29
2022-08-18T02:03:09.773Z,16.48
2022-08-18T02:04:10.932Z,16.66
2022-08-18T02:04:56.848Z,16.58
2022-08-18T02:05:41.929Z,16.45
2022-08-18T02:06:32.250Z,16.45
2022-08-18T02:07:08.003Z,16.63
2022-08-18T02:07:55.840Z,16.99
2022-08-18T02:08:29.941Z,16.73
2022-08-18T02:09:24.238Z,16.92
2022-08-18T02:10:05.931Z,17.29
2022-08-18T02:11:05.841Z,16.90
2022-08-18T02:11:59.827Z,16.34
2022-08-18T02:12:54.853Z,16.56
2022-08-18T02:13:48.858Z,16.89
2022-08-18T02:14:37.049Z,17.11
2022-08-18T02:15:18.873Z,17.11
2022-08-18T02:15:58.906Z,16.89
2022-08-18T02:16:39.836Z,16.64
2022-08-18T02:17:22.665Z,16.16
2022-08-18T02:18:02.829Z,16.30
2022-08-18T02:18:47.608Z,16.29
2022-08-18T02:19:28.839Z,16.33
2022-08-18T02:20:08.901Z,16.30
2022-08-18T02:20:49.845Z,16.30
2022-08-18T02:21:29.902Z,16.13
2022-08-18T02:22:10.823Z,16.29
2022-08-18T02:22:53.116Z,16.45
2022-08-18T02:23:32.826Z,15.93
2022-08-18T02:24:13.099Z,15.95
2022-08-18T02:24:53.823Z,16.42
2022-08-18T02:25:33.932Z,16.35
2022-08-18T02:26:19.865Z,16.45
2022-08-18T02:26:59.906Z,16.74
2022-08-18T02:27:40.837Z,16.46
2022-08-18T02:28:20.903Z,16.06
2022-08-18T02:29:01.815Z,16.25
2022-08-18T02:29:42.893Z,15.88
2022-08-18T02:30:24.805Z,16.10
2022-08-18T02:31:04.877Z,16.26
2022-08-18T02:31:44.847Z,16.19
2022-08-18T02:32:24.921Z,15.71
2022-08-18T02:33:09.822Z,15.80
2022-08-18T02:33:52.623Z,15.99
2022-08-18T02:34:32.816Z,16.13
2022-08-18T02:35:14.895Z,16.11
2022-08-18T02:36:00.815Z,16.59
2022-08-18T02:36:40.902Z,16.83
2022-08-18T02:37:20.842Z,16.89
2022-08-18T02:38:00.917Z,16.15
2022-08-18T02:38:44.826Z,15.96
2022-08-18T02:39:32.924Z,16.39
2022-08-18T02:40:15.571Z,16.29
2022-08-18T02:41:09.354Z,15.94
2022-08-18T02:41:50.814Z,16.15
2022-08-18T02:42:37.838Z,16.40
2022-08-18T02:43:34.984Z,15.99
2022-08-18T02:44:31.821Z,16.13
2022-08-18T02:45:26.830Z,16.09
2022-08-18T02:46:20.822Z,16.54
2022-08-18T02:47:17.808Z,16.42
2022-08-18T02:48:02.842Z,16.31
2022-08-18T02:48:42.902Z,15.96
2022-08-18T02:49:22.803Z,16.25
2022-08-18T02:50:02.868Z,16.44
2022-08-18T02:50:51.790Z,16.71
2022-08-18T02:51:31.869Z,17.00
2022-08-18T02:52:12.817Z,17.33
2022-08-18T02:52:54.214Z,17.00
2022-08-18T02:53:34.851Z,16.65
2022-08-18T02:54:14.883Z,17.48
2022-08-18T02:54:55.803Z,17.02
2022-08-18T02:55:35.880Z,16.75
2022-08-18T02:56:41.126Z,16.83
2022-08-18T02:57:16.523Z,17.48
2022-08-18T02:58:04.929Z,17.21
2022-08-18T02:58:45.843Z,16.95
2022-08-18T02:59:31.844Z,16.69
2022-08-18T03:00:18.942Z,16.75
2022-08-18T03:00:58.905Z,17.10
2022-08-18T03:01:45.856Z,17.30
2022-08-18T03:02:26.874Z,17.84
2022-08-18T03:03:06.788Z,17.52
2022-08-18T03:03:53.812Z,17.58
2022-08-18T03:04:31.213Z,17.19
2022-08-18T03:05:19.813Z,17.15
2022-08-18T03:05:54.763Z,17.11
2022-08-18T03:06:42.805Z,16.83
2022-08-18T03:07:18.735Z,17.25
2022-08-18T03:08:06.807Z,17.59
2022-08-18T03:08:40.575Z,17.51
2022-08-18T03:09:23.863Z,17.60
2022-08-18T03:09:59.177Z,17.45
2022-08-18T03:10:35.500Z,17.10
2022-08-18T03:11:16.786Z,17.23
2022-08-18T03:11:52.809Z,17.45
2022-08-18T03:12:26.589Z,17.08
2022-08-18T03:13:07.798Z,17.11
2022-08-18T03:13:41.858Z,17.73
2022-08-18T03:14:16.685Z,18.74
2022-08-18T03:14:56.881Z,18.24
2022-08-18T03:15:30.876Z,18.02
2022-08-18T03:16:04.838Z,17.88
2022-08-18T03:16:53.689Z,17.73
2022-08-18T03:17:28.846Z,18.17
2022-08-18T03:18:02.554Z,18.06
2022-08-18T03:18:43.797Z,17.58
2022-08-18T03:19:17.879Z,17.65
2022-08-18T03:19:51.525Z,17.50
2022-08-18T03:20:32.799Z,17.00
2022-08-18T03:21:15.912Z,17.38
2022-08-18T03:21:49.552Z,17.41
2022-08-18T03:22:31.778Z,17.23
2022-08-18T03:23:09.914Z,16.84
2022-08-18T03:23:44.977Z,17.09
2022-08-18T03:24:41.797Z,17.26
2022-08-18T03:25:15.842Z,16.94
2022-08-18T03:25:56.799Z,16.81
2022-08-18T03:26:38.861Z,17.13
2022-08-18T03:27:19.768Z,17.40
2022-08-18T03:27:59.853Z,17.19
2022-08-18T03:28:40.780Z,16.80
2022-08-18T03:29:21.841Z,16.96
2022-08-18T03:30:02.771Z,17.25
2022-08-18T03:30:43.421Z,17.10
2022-08-18T03:31:27.946Z,17.05
2022-08-18T03:32:10.877Z,17.24
2022-08-18T03:32:50.780Z,17.36
2022-08-18T03:33:30.842Z,17.09
2022-08-18T03:34:07.095Z,17.39
2022-08-18T03:34:48.770Z,17.46
2022-08-18T03:35:22.845Z,17.63
2022-08-18T03:35:56.474Z,17.70
2022-08-18T03:36:39.808Z,17.38
2022-08-18T03:37:15.924Z,16.89
2022-08-18T03:37:49.550Z,16.96
2022-08-18T03:38:30.778Z,17.17
2022-08-18T03:39:05.901Z,16.42
2022-08-18T03:39:40.808Z,16.69
2022-08-18T03:40:21.807Z,16.56
2022-08-18T03:40:59.835Z,16.84
2022-08-18T03:41:43.907Z,16.33
2022-08-18T03:42:35.903Z,16.61
2022-08-18T03:43:38.926Z,16.90
2022-08-18T03:44:06.514Z,16.75
2022-08-18T03:44:46.791Z,16.67
2022-08-18T03:45:20.840Z,16.84
2022-08-18T03:45:55.575Z,16.90
2022-08-18T03:46:36.767Z,16.74
2022-08-18T03:47:20.157Z,16.52
2022-08-18T03:48:00.782Z,16.84
2022-08-18T03:48:41.014Z,16.92
2022-08-18T03:49:20.759Z,16.45
2022-08-18T03:50:00.870Z,17.10
2022-08-18T03:50:40.770Z,17.65
2022-08-18T03:51:26.646Z,17.84
2022-08-18T03:52:06.769Z,17.79
2022-08-18T03:52:49.604Z,17.76
2022-08-18T03:53:29.800Z,17.96
2022-08-18T03:54:13.748Z,17.73
2022-08-18T03:54:54.744Z,17.44
2022-08-18T03:55:34.822Z,17.26
2022-08-18T03:56:25.760Z,17.66
2022-08-18T03:57:06.862Z,18.26
2022-08-18T03:57:46.789Z,18.96
2022-08-18T03:58:26.889Z,19.20
2022-08-18T03:59:13.785Z,19.63
2022-08-18T03:59:54.823Z,20.00
2022-08-18T04:00:38.761Z,19.60
2022-08-18T04:01:26.580Z,19.14
2022-08-18T04:02:10.745Z,18.90
2022-08-18T04:02:51.803Z,19.46
2022-08-18T04:03:34.781Z,19.95
2022-08-18T04:04:26.801Z,20.40
2022-08-18T04:05:00.521Z,20.24
2022-08-18T04:05:53.772Z,19.96
2022-08-18T04:06:40.946Z,20.26
2022-08-18T04:07:27.746Z,20.48
2022-08-18T04:08:04.040Z,19.73
2022-08-18T04:08:50.754Z,19.79
2022-08-18T04:09:34.757Z,19.88
2022-08-18T04:10:19.402Z,19.44
2022-08-18T04:11:00.760Z,18.90
2022-08-18T04:11:45.853Z,18.81
2022-08-18T04:12:25.750Z,18.65
2022-08-18T04:13:06.808Z,17.86
2022-08-18T04:13:47.736Z,18.05
2022-08-18T04:14:32.012Z,18.66
2022-08-18T04:15:12.839Z,18.23
2022-08-18T04:15:52.814Z,18.40
2022-08-18T04:16:34.766Z,18.26
2022-08-18T04:17:16.829Z,18.84
2022-08-18T04:18:03.746Z,19.70
2022-08-18T04:18:44.818Z,21.10
2022-08-18T04:19:26.670Z,21.65
2022-08-18T04:20:07.860Z,20.91
2022-08-18T04:20:59.678Z,21.90
2022-08-18T04:21:44.853Z,21.85
2022-08-18T04:22:25.732Z,22.81
2022-08-18T04:23:06.812Z,22.00
2022-08-18T04:23:47.757Z,22.06
2022-08-18T04:24:31.185Z,21.55
2022-08-18T04:25:15.750Z,20.64
2022-08-18T04:26:19.421Z,21.31
2022-08-18T04:26:54.057Z,20.20
2022-08-18T04:27:41.747Z,18.81
2022-08-18T04:28:15.436Z,18.70
2022-08-18T04:29:02.718Z,18.81
2022-08-18T04:29:36.465Z,19.35
2022-08-18T04:30:24.787Z,19.56
2022-08-18T04:30:59.458Z,20.23
2022-08-18T04:31:39.762Z,20.48
2022-08-18T04:32:21.808Z,20.84
2022-08-18T04:33:12.738Z,22.11
2022-08-18T04:33:52.781Z,21.39
2022-08-18T04:34:33.733Z,20.16
2022-08-18T04:35:14.937Z,19.96
2022-08-18T04:35:54.717Z,20.01
2022-08-18T04:36:36.852Z,19.41
2022-08-18T04:37:17.773Z,19.58
2022-08-18T04:37:57.909Z,19.86
2022-08-18T04:38:37.731Z,19.75
2022-08-18T04:39:19.806Z,19.48
2022-08-18T04:39:59.801Z,18.86
2022-08-18T04:40:41.804Z,18.70
2022-08-18T04:41:21.719Z,18.79
2022-08-18T04:42:04.518Z,19.25
2022-08-18T04:42:44.785Z,19.51
2022-08-18T04:43:24.817Z,18.92
2022-08-18T04:44:07.730Z,18.99
2022-08-18T04:44:48.787Z,18.75
2022-08-18T04:45:28.752Z,18.59
2022-08-18T04:46:09.823Z,19.06
2022-08-18T04:46:56.718Z,18.74
2022-08-18T04:47:36.915Z,18.55
2022-08-18T04:48:18.733Z,18.20
2022-08-18T04:48:59.253Z,18.70
2022-08-18T04:49:40.766Z,18.71
2022-08-18T04:50:20.801Z,18.86
2022-08-18T04:51:00.739Z,19.20
2022-08-18T04:52:27.063Z,19.19
2022-08-18T04:53:00.708Z,18.89
2022-08-18T04:53:54.733Z,18.71
2022-08-18T04:54:30.769Z,18.91
2022-08-18T04:55:18.712Z,18.80
2022-08-18T04:56:00.789Z,19.42
2022-08-18T04:56:47.737Z,20.79
2022-08-18T04:57:26.188Z,22.34
2022-08-18T04:58:12.716Z,21.85
2022-08-18T04:58:52.172Z,20.42
2022-08-18T04:59:31.737Z,20.67
2022-08-18T05:00:14.129Z,21.54
2022-08-18T05:01:03.824Z,20.83
2022-08-18T05:01:48.155Z,18.92
2022-08-18T05:02:29.716Z,19.27
2022-08-18T05:03:09.857Z,19.85
2022-08-18T05:03:51.723Z,20.09
2022-08-18T05:04:38.751Z,20.14
2022-08-18T05:05:33.719Z,19.77
2022-08-18T05:06:27.705Z,19.09
2022-08-18T05:07:24.712Z,19.75
2022-08-18T05:08:18.693Z,20.08
2022-08-18T05:09:22.948Z,20.01
2022-08-18T05:10:03.744Z,19.75
2022-08-18T05:10:43.777Z,19.92
2022-08-18T05:11:23.709Z,19.92
2022-08-18T05:12:03.949Z,19.59
2022-08-18T05:12:43.698Z,19.48
2022-08-18T05:13:23.765Z,19.90
2022-08-18T05:14:06.687Z,19.75
2022-08-18T05:14:47.748Z,19.84
2022-08-18T05:15:28.865Z,20.16
2022-08-18T05:16:18.031Z,20.45
2022-08-18T05:17:09.701Z,20.00
2022-08-18T05:17:50.718Z,19.63
2022-08-18T05:18:31.699Z,20.13
2022-08-18T05:19:15.777Z,20.00
2022-08-18T05:19:59.685Z,20.51
2022-08-18T05:20:47.701Z,20.73
2022-08-18T05:21:43.722Z,20.90
2022-08-18T05:22:38.690Z,20.69
2022-08-18T05:23:35.703Z,20.04
2022-08-18T05:24:37.134Z,20.44
2022-08-18T05:25:31.703Z,20.02
2022-08-18T05:26:12.704Z,19.92
2022-08-18T05:26:53.830Z,19.70
2022-08-18T05:27:44.688Z,20.20
2022-08-18T05:28:24.769Z,21.14
2022-08-18T05:29:18.194Z,23.04
2022-08-18T05:29:59.773Z,22.52
2022-08-18T05:30:40.684Z,19.76
2022-08-18T05:31:32.722Z,19.88
2022-08-18T05:32:38.254Z,21.45
2022-08-18T05:33:42.690Z,22.81
2022-08-18T05:34:36.709Z,20.33
2022-08-18T05:36:02.712Z,19.84
2022-08-18T05:36:55.754Z,20.06
2022-08-18T05:38:08.772Z,19.98
2022-08-18T05:39:22.677Z,19.31
2022-08-18T05:40:11.774Z,19.46
2022-08-18T05:41:27.690Z,19.11
2022-08-18T05:42:24.716Z,18.89
2022-08-18T05:43:18.687Z,19.30
2022-08-18T05:44:13.691Z,19.45
2022-08-18T05:45:09.702Z,19.51
2022-08-18T05:46:04.678Z,19.40
2022-08-18T05:47:14.680Z,19.94
2022-08-18T05:47:54.715Z,19.89
2022-08-18T05:48:39.811Z,19.81
2022-08-18T05:49:24.672Z,20.27
2022-08-18T05:50:12.790Z,19.60
2022-08-18T05:50:52.677Z,19.00
2022-08-18T05:51:41.742Z,18.39
2022-08-18T05:52:40.666Z,18.69
2022-08-18T05:53:22.694Z,19.74
2022-08-18T05:54:15.171Z,19.06
2022-08-18T05:55:26.726Z,18.64
2022-08-18T05:56:28.325Z,19.10
2022-08-18T05:57:22.686Z,20.23
2022-08-18T05:58:17.086Z,18.92
2022-08-18T05:59:00.680Z,17.73
2022-08-18T05:59:48.006Z,17.77
2022-08-18T06:00:30.665Z,17.89
2022-08-18T06:01:18.746Z,17.39
2022-08-18T06:02:34.722Z,16.90
2022-08-18T06:03:27.926Z,16.85
2022-08-18T06:04:39.693Z,16.91
2022-08-18T06:05:35.814Z,16.71
2022-08-18T06:06:30.655Z,16.83
2022-08-18T06:07:13.801Z,16.71
2022-08-18T06:08:03.659Z,16.75
2022-08-18T06:08:52.120Z,16.61
2022-08-18T06:09:43.686Z,16.56
2022-08-18T06:10:23.786Z,16.01
2022-08-18T06:11:04.686Z,15.56
2022-08-18T06:11:44.733Z,15.43
2022-08-18T06:12:51.652Z,16.09
2022-08-18T06:13:31.708Z,16.56
2022-08-18T06:14:12.661Z,16.70
2022-08-18T06:14:59.696Z,16.71
2022-08-18T06:16:22.664Z,15.95
2022-08-18T06:17:50.761Z,15.66
2022-08-18T06:19:29.650Z,15.99
2022-08-18T06:20:56.749Z,16.71
2022-08-18T06:21:54.845Z,17.41
2022-08-18T06:23:53.654Z,16.94
2022-08-18T06:24:50.826Z,16.54
2022-08-18T06:26:10.670Z,16.81
2022-08-18T06:26:59.723Z,17.15
2022-08-18T06:28:20.648Z,16.80
2022-08-18T06:29:16.728Z,16.86
2022-08-18T06:30:30.669Z,17.25
2022-08-18T06:31:27.442Z,17.09
2022-08-18T06:33:04.634Z,16.67
2022-08-18T06:34:37.648Z,16.44
2022-08-18T06:36:03.645Z,16.85
2022-08-18T06:37:13.677Z,16.60
2022-08-18T06:38:40.255Z,16.17
2022-08-18T06:39:48.704Z,15.91
2022-08-18T06:40:28.712Z,16.16
2022-08-18T06:41:40.567Z,16.64
2022-08-18T06:42:40.494Z,16.96
2022-08-18T06:43:34.633Z,16.92
2022-08-18T06:44:52.640Z,16.55
2022-08-18T06:45:51.618Z,16.42
2022-08-18T06:47:04.706Z,18.58
2022-08-18T06:48:19.660Z,20.02
2022-08-18T06:49:18.704Z,17.61
2022-08-18T06:50:21.621Z,16.04
2022-08-18T06:51:18.621Z,16.06
2022-08-18T06:52:12.618Z,16.15
2022-08-18T06:53:27.515Z,16.24
2022-08-18T06:54:32.684Z,16.11
2022-08-18T06:55:21.765Z,15.99
2022-08-18T06:56:02.648Z,15.88
2022-08-18T06:56:47.005Z,16.00
2022-08-18T06:57:40.689Z,15.50
2022-08-18T06:58:24.721Z,15.69
2022-08-18T06:59:30.686Z,16.00
2022-08-18T07:00:32.410Z,15.70
2022-08-18T07:01:12.743Z,16.02
2022-08-18T07:02:52.662Z,15.60
2022-08-18T07:03:46.720Z,15.49
2022-08-18T07:04:49.670Z,15.76
2022-08-18T07:05:35.914Z,15.79
2022-08-18T07:06:28.654Z,15.54
2022-08-18T07:07:03.689Z,14.85
2022-08-18T07:07:52.086Z,14.88
2022-08-18T07:08:53.015Z,14.94
2022-08-18T07:09:42.657Z,14.73
2022-08-18T07:10:29.641Z,14.25
2022-08-18T07:11:49.630Z,14.10
2022-08-18T07:12:44.642Z,13.74
2022-08-18T07:13:42.699Z,13.66
2022-08-18T07:14:37.611Z,13.69
2022-08-18T07:15:38.730Z,13.56
2022-08-18T07:16:58.470Z,13.43
2022-08-18T07:17:53.687Z,14.09
2022-08-18T07:18:47.678Z,15.85
2022-08-18T07:19:44.707Z,17.61
2022-08-18T07:20:39.684Z,14.69
2022-08-18T07:21:45.717Z,14.93
2022-08-18T07:22:39.789Z,14.79
2022-08-18T07:23:57.607Z,14.54
2022-08-18T07:25:06.596Z,14.64
2022-08-18T07:25:57.768Z,14.60
2022-08-18T07:26:31.703Z,14.14
2022-08-18T07:27:25.616Z,14.14
2022-08-18T07:28:02.846Z,14.23
2022-08-18T07:28:56.602Z,14.52
2022-08-18T07:29:30.662Z,14.59
2022-08-18T07:30:27.629Z,14.07
2022-08-18T07:31:52.660Z,13.91
2022-08-18T07:33:00.642Z,13.40
2022-08-18T07:33:56.659Z,13.34
2022-08-18T07:35:00.636Z,13.02
2022-08-18T07:36:05.636Z,12.18
2022-08-18T07:37:26.470Z,11.64
2022-08-18T07:38:51.651Z,11.39
2022-08-18T07:39:54.637Z,11.43
2022-08-18T07:40:57.594Z,11.05
2022-08-18T07:43:01.163Z,10.94
2022-08-18T07:44:02.632Z,10.24
2022-08-18T07:45:06.641Z,9.99
2022-08-18T07:46:02.633Z,10.50
2022-08-18T07:47:18.582Z,10.52
2022-08-18T07:48:38.024Z,10.16
2022-08-18T07:49:54.443Z,10.15
2022-08-18T07:51:08.719Z,10.66
2022-08-18T07:52:26.428Z,10.18
2022-08-18T07:53:40.617Z,10.01
2022-08-18T07:55:00.598Z,10.00
2022-08-18T07:55:58.601Z,9.93
2022-08-18T07:57:21.610Z,9.95
2022-08-18T07:58:44.645Z,10.40
2022-08-18T08:00:18.765Z,10.45
2022-08-18T08:01:50.670Z,10.55
2022-08-18T08:03:21.569Z,10.90
2022-08-18T08:05:14.634Z,10.01
2022-08-18T08:06:20.800Z,10.10
2022-08-18T08:07:25.521Z,10.74
2022-08-18T08:08:07.003Z,10.29
2022-08-18T08:09:18.566Z,10.01
2022-08-18T08:10:13.643Z,10.31
2022-08-18T08:11:25.815Z,10.25
2022-08-18T08:12:27.682Z,10.54
2022-08-18T08:13:55.250Z,10.51
2022-08-18T08:14:58.266Z,10.84
2022-08-18T08:16:09.582Z,11.14
2022-08-18T08:17:10.602Z,10.81
2022-08-18T08:18:31.686Z,11.01
2022-08-18T08:20:03.677Z,10.95
2022-08-18T08:20:54.502Z,11.09
2022-08-18T08:22:06.593Z,10.88
2022-08-18T08:23:10.613Z,10.55
2022-08-18T08:24:34.597Z,10.86
2022-08-18T08:25:58.565Z,10.84
2022-08-18T08:27:24.594Z,10.20
2022-08-18T08:28:56.000Z,10.61
2022-08-18T08:30:17.563Z,10.13
2022-08-18T08:31:45.594Z,10.31
2022-08-18T08:33:08.583Z,10.41
2022-08-18T08:34:24.606Z,10.51
2022-08-18T08:35:59.586Z,10.40
2022-08-18T08:36:57.569Z,10.11
2022-08-18T08:38:39.398Z,9.98
2022-08-18T08:39:49.633Z,10.09
2022-08-18T08:41:10.571Z,9.54
2022-08-18T08:42:32.038Z,9.77
2022-08-18T08:43:31.578Z,10.14
2022-08-18T08:45:08.720Z,10.07
2022-08-18T08:46:31.569Z,9.70
2022-08-18T08:47:38.547Z,9.60
2022-08-18T08:48:42.562Z,9.18
2022-08-18T08:50:01.572Z,9.25
2022-08-18T08:50:50.605Z,8.92
2022-08-18T08:51:50.647Z,8.51
2022-08-18T08:53:10.560Z,8.76
2022-08-18T08:53:55.629Z,9.20
2022-08-18T08:55:01.538Z,9.04
2022-08-18T08:55:48.677Z,9.23
2022-08-18T08:56:37.612Z,9.06
2022-08-18T08:57:20.689Z,9.00
2022-08-18T08:58:24.938Z,9.07
2022-08-18T08:59:11.676Z,9.31
2022-08-18T09:00:01.555Z,9.29
2022-08-18T09:00:36.571Z,9.29
2022-08-18T09:02:00.650Z,8.77
2022-08-18T09:03:13.404Z,8.99
2022-08-18T09:04:12.561Z,9.77
2022-08-18T09:05:21.938Z,12.48
2022-08-18T09:06:55.557Z,12.14
2022-08-18T09:07:48.569Z,10.38
2022-08-18T09:08:52.696Z,9.94
2022-08-18T09:09:56.579Z,10.21
2022-08-18T09:11:10.749Z,10.41
2022-08-18T09:12:31.550Z,10.16
2022-08-18T09:13:40.564Z,10.38
2022-08-18T09:14:44.593Z,10.80
2022-08-18T09:16:18.552Z,11.38
2022-08-18T09:16:59.423Z,11.27
2022-08-18T09:17:52.562Z,11.14
2022-08-18T09:18:48.605Z,10.81
2022-08-18T09:19:49.623Z,11.02
2022-08-18T09:21:34.543Z,11.09
2022-08-18T09:22:30.675Z,10.70
2022-08-18T09:23:24.549Z,10.60
2022-08-18T09:24:35.566Z,10.63
2022-08-18T09:25:29.710Z,10.44
2022-08-18T09:26:39.553Z,10.54
2022-08-18T09:27:28.258Z,10.38
2022-08-18T09:28:31.536Z,10.21
2022-08-18T09:29:44.390Z,10.35
2022-08-18T09:31:09.162Z,10.16
2022-08-18T09:31:52.536Z,10.19
2022-08-18T09:32:32.619Z,10.52
2022-08-18T09:33:50.526Z,10.40
2022-08-18T09:35:15.561Z,10.99
2022-08-18T09:36:00.308Z,11.52
2022-08-18T09:37:17.535Z,10.40
2022-08-18T09:38:31.164Z,10.46
2022-08-18T09:40:12.553Z,10.57
2022-08-18T09:41:17.610Z,10.45
2022-08-18T09:42:14.252Z,10.79
2022-08-18T09:43:10.528Z,10.93
2022-08-18T09:44:12.088Z,10.48
2022-08-18T09:45:36.521Z,10.40
2022-08-18T09:46:25.548Z,10.30
2022-08-18T09:47:02.629Z,10.43
2022-08-18T09:47:49.536Z,10.38
2022-08-18T09:48:31.702Z,10.61
2022-08-18T09:50:01.897Z,10.55
2022-08-18T09:51:17.771Z,10.35
2022-08-18T09:52:26.538Z,10.30
2022-08-18T09:53:05.577Z,10.18
2022-08-18T09:53:53.838Z,10.14
2022-08-18T09:54:39.504Z,10.43
2022-08-18T09:55:23.605Z,10.47
2022-08-18T09:56:04.792Z,10.93
2022-08-18T09:56:57.538Z,10.56
2022-08-18T09:57:44.547Z,10.10
2022-08-18T09:58:26.307Z,10.14
2022-08-18T09:59:14.532Z,10.11
2022-08-18T09:59:49.198Z,10.57
2022-08-18T10:00:43.489Z,11.05
2022-08-18T10:01:40.025Z,10.50
2022-08-18T10:02:49.555Z,12.15
2022-08-18T10:04:40.505Z,11.05
2022-08-18T10:06:32.505Z,9.91
2022-08-18T10:07:42.000Z,9.94
2022-08-18T10:08:27.713Z,9.93
2022-08-18T10:09:43.987Z,10.11
2022-08-18T10:11:08.772Z,9.96
2022-08-18T10:12:27.252Z,10.82
2022-08-18T10:13:49.901Z,10.20
2022-08-18T10:14:30.079Z,9.55
2022-08-18T10:15:48.561Z,9.48
2022-08-18T10:17:23.321Z,9.45
2022-08-18T10:18:23.512Z,9.57
2022-08-18T10:19:52.025Z,9.52
2022-08-18T10:20:39.108Z,9.27
2022-08-18T10:21:36.551Z,9.46
2022-08-18T10:22:52.733Z,9.76
2022-08-18T10:24:32.166Z,9.35
2022-08-18T10:25:27.764Z,9.09
2022-08-18T10:26:04.536Z,8.93
2022-08-18T10:26:55.262Z,8.64
2022-08-18T10:27:55.634Z,8.76
2022-08-18T10:29:10.353Z,8.80
2022-08-18T10:29:53.972Z,8.39
2022-08-18T10:30:56.264Z,8.85
2022-08-18T10:31:33.586Z,9.27
2022-08-18T10:32:08.337Z,9.27
2022-08-18T10:32:55.999Z,9.07
2022-08-18T10:34:16.082Z,9.05
2022-08-18T10:34:57.665Z,9.19
2022-08-18T10:35:40.562Z,9.35
2022-08-18T10:36:14.771Z,9.41
2022-08-18T10:36:53.276Z,9.02
2022-08-18T10:37:55.519Z,9.32
2022-08-18T10:38:53.509Z,9.20
2022-08-18T10:39:44.951Z,9.29
2022-08-18T10:40:29.575Z,9.60
2022-08-18T10:41:26.551Z,9.46
2022-08-18T10:42:34.533Z,9.46
2022-08-18T10:43:54.976Z,9.19
2022-08-18T10:44:35.047Z,8.96
2022-08-18T10:45:50.786Z,9.07
2022-08-18T10:46:49.505Z,9.43
2022-08-18T10:47:36.729Z,9.57
2022-08-18T10:48:36.509Z,9.59
2022-08-18T10:49:22.584Z,9.02
2022-08-18T10:50:03.496Z,9.01
2022-08-18T10:53:23.855Z,9.02
2022-08-18T10:54:06.550Z,9.43
2022-08-18T10:56:09.502Z,9.57
2022-08-18T10:57:05.408Z,9.30
2022-08-18T10:58:34.382Z,9.32
2022-08-18T10:59:47.838Z,9.69
2022-08-18T11:01:14.501Z,9.55
2022-08-18T11:02:28.941Z,9.45
2022-08-18T11:04:22.593Z,9.69
2022-08-18T11:05:02.631Z,8.81
2022-08-18T11:05:49.448Z,9.32
2022-08-18T11:06:28.636Z,12.10
2022-08-18T11:07:26.462Z,11.54
2022-08-18T11:08:15.673Z,8.75
2022-08-18T11:09:07.502Z,8.56
2022-08-18T11:09:50.865Z,9.13
2022-08-18T11:11:31.504Z,8.84
2022-08-18T11:11:52.763Z,8.52
2022-08-18T11:13:35.488Z,8.75
2022-08-18T11:14:58.532Z,8.59
2022-08-18T11:16:27.465Z,8.81
2022-08-18T11:17:49.478Z,8.93
2022-08-18T11:18:57.440Z,8.91
2022-08-18T11:19:54.539Z,8.79
2022-08-18T11:20:38.495Z,8.91
2022-08-18T11:22:41.457Z,8.48
2022-08-18T11:23:27.514Z,8.55
2022-08-18T11:24:29.480Z,8.61